Time;durP1;ratioP1;P1;durP2;ratioP2;P2;SDS_P1;SDS_P2;PMS_P1;PMS_P2;Temp;Humidity;BMP_temperature;BMP_pressure;BME280_temperature;BME280_humidity;BME280_pressure;Samples;Min_cycle;Max_cycle;Signal;HPM_P1;HPM_P2
2023/02/01 00:00:55;;;;;;;9.50;2.30;;;;;;;13.57;50.36;101912.50;4891671;29;20037;-65
2023/02/01 00:03:20;;;;;;;9.55;2.55;;;;;;;13.59;49.52;101923.16;4890443;29;20045;-66
2023/02/01 00:05:58;;;;;;;8.48;2.58;;;;;;;13.59;49.08;101921.34;4895728;29;20036;-65
2023/02/01 00:08:23;;;;;;;15.32;2.20;;;;;;;13.61;50.35;101927.44;4894970;29;20037;-65
2023/02/01 00:10:58;;;;;;;9.88;2.35;;;;;;;13.63;49.07;101930.84;4893662;29;20072;-65
2023/02/01 00:13:23;;;;;;;6.10;1.60;;;;;;;13.64;49.18;101923.66;4891170;29;20468;-65
2023/02/01 00:15:48;;;;;;;10.15;2.25;;;;;;;13.65;50.38;101920.00;4879095;29;20117;-65
2023/02/01 00:18:14;;;;;;;5.78;2.33;;;;;;;13.65;49.13;101925.38;4890104;29;20040;-65
2023/02/01 00:20:45;;;;;;;6.55;1.77;;;;;;;13.62;49.33;101931.00;4892098;29;20120;-65
2023/02/01 00:23:10;;;;;;;7.78;1.98;;;;;;;13.61;48.84;101918.50;4891379;29;20532;-65
2023/02/01 00:25:36;;;;;;;4.13;2.08;;;;;;;13.60;49.12;101928.41;4892359;29;20022;-65
2023/02/01 00:28:01;;;;;;;6.63;2.70;;;;;;;13.59;49.09;101917.78;4888573;29;20040;-66
2023/02/01 00:30:27;;;;;;;4.63;2.33;;;;;;;13.61;49.73;101923.88;4891415;29;20085;-65
2023/02/01 00:32:52;;;;;;;12.43;2.13;;;;;;;13.61;49.52;101926.56;4892709;29;20037;-65
2023/02/01 00:35:18;;;;;;;9.88;2.22;;;;;;;13.59;49.80;101917.78;4891998;29;20398;-65
2023/02/01 00:37:43;;;;;;;9.55;2.17;;;;;;;13.58;49.58;101913.34;4875720;29;20020;-65
2023/02/01 00:40:09;;;;;;;10.32;3.10;;;;;;;13.53;50.12;101911.03;4888612;29;20041;-65
2023/02/01 00:42:35;;;;;;;7.55;2.30;;;;;;;13.53;49.90;101911.03;4888797;29;20068;-66
2023/02/01 00:45:00;;;;;;;16.38;2.53;;;;;;;13.51;48.91;101896.88;4891692;29;20068;-66
2023/02/01 00:47:26;;;;;;;7.35;1.88;;;;;;;13.49;48.71;101882.66;4889896;29;20048;-65
2023/02/01 00:49:51;;;;;;;5.53;2.55;;;;;;;13.43;48.66;101863.47;4887812;29;20465;-66
2023/02/01 00:52:17;;;;;;;10.13;2.35;;;;;;;13.39;48.83;101858.31;4895006;29;20028;-66
2023/02/01 00:54:43;;;;;;;12.93;2.38;;;;;;;13.34;49.40;101844.34;4890967;29;20386;-65
2023/02/01 00:57:09;;;;;;;7.35;3.13;;;;;;;13.30;48.63;101845.59;4891280;29;20490;-65
2023/02/01 00:59:34;;;;;;;8.15;1.92;;;;;;;13.27;48.74;101851.22;4894427;29;20032;-65
2023/02/01 01:01:59;;;;;;;7.80;3.60;;;;;;;13.27;48.34;101855.72;4893647;29;20060;-65
2023/02/01 01:04:25;;;;;;;5.60;1.70;;;;;;;13.25;49.70;101849.63;4894599;29;20045;-65
2023/02/01 01:06:50;;;;;;;9.90;2.25;;;;;;;13.21;49.28;101849.00;4891449;29;20043;-65
2023/02/01 01:09:15;;;;;;;9.48;2.35;;;;;;;13.20;49.63;101847.31;4902220;29;20044;-65
2023/02/01 01:11:41;;;;;;;11.68;2.75;;;;;;;13.20;49.63;101854.50;4886427;29;20489;-65
2023/02/01 01:14:07;;;;;;;13.00;3.20;;;;;;;13.19;49.55;101858.16;4876860;29;20064;-66
2023/02/01 01:16:33;;;;;;;11.02;2.80;;;;;;;13.19;48.52;101875.16;4888025;29;20051;-65
2023/02/01 01:18:59;;;;;;;16.80;2.90;;;;;;;13.19;48.54;101891.31;4904698;29;20501;-65
2023/02/01 01:21:25;;;;;;;10.95;2.83;;;;;;;13.18;48.94;101891.41;4896318;29;20044;-65
2023/02/01 01:23:50;;;;;;;17.48;3.60;;;;;;;13.18;48.76;101896.78;4889882;29;20044;-65
2023/02/01 01:26:22;;;;;;;11.73;3.13;;;;;;;13.21;49.73;101893.88;4891629;29;20371;-65
2023/02/01 01:28:48;;;;;;;7.40;2.72;;;;;;;13.17;49.04;101885.19;4895830;29;20021;-65
2023/02/01 01:31:14;;;;;;;9.45;2.75;;;;;;;13.23;48.38;101887.38;4895513;29;20080;-65
2023/02/01 01:33:40;;;;;;;12.15;2.97;;;;;;;13.20;49.57;101876.91;4894812;29;20040;-65
2023/02/01 01:36:11;;;;;;;7.03;2.83;;;;;;;13.24;48.70;101877.50;4895689;29;20120;-65
2023/02/01 01:38:36;;;;;;;6.90;3.15;;;;;;;13.25;48.35;101880.06;4891580;29;20033;-65
2023/02/01 01:41:02;;;;;;;15.23;3.25;;;;;;;13.24;48.41;101870.28;4890078;29;20076;-65
2023/02/01 01:43:45;;;;;;;10.10;3.33;;;;;;;13.31;48.63;101870.66;4895876;29;20033;-65
2023/02/01 01:46:10;;;;;;;;;;;;;;;13.32;49.05;101869.66;4906376;29;20454;-65
2023/02/01 01:48:36;;;;;;;12.60;3.40;;;;;;;13.33;48.97;101874.94;4905781;29;19923;-65
2023/02/01 01:51:04;;;;;;;9.10;3.03;;;;;;;13.32;49.39;101870.53;4894919;29;20045;-65
2023/02/01 01:53:40;;;;;;;10.05;2.85;;;;;;;13.31;48.74;101865.28;4892224;29;20045;-65
2023/02/01 01:56:06;;;;;;;15.38;4.10;;;;;;;13.31;49.35;101858.06;4896428;29;20123;-65
2023/02/01 01:58:33;;;;;;;14.85;3.20;;;;;;;13.37;48.79;101862.94;4892933;29;20127;-65
2023/02/01 02:00:59;;;;;;;6.80;3.55;;;;;;;13.36;48.43;101861.25;4893568;29;20568;-65
2023/02/01 02:03:43;;;;;;;10.77;3.00;;;;;;;13.39;49.09;101869.09;4894380;29;20123;-66
2023/02/01 02:06:30;;;;;;;7.22;2.70;;;;;;;13.38;49.87;101872.75;4882344;29;20100;-66
2023/02/01 02:08:55;;;;;;;9.25;3.00;;;;;;;13.40;48.35;101876.16;4911979;29;20497;-65
2023/02/01 02:11:21;;;;;;;13.45;3.67;;;;;;;13.43;48.48;101879.59;4903050;29;20056;-66
2023/02/01 02:13:50;;;;;;;17.83;3.38;;;;;;;13.43;49.74;101873.22;4891248;29;20918;-65
2023/02/01 02:16:26;;;;;;;12.07;3.13;;;;;;;13.43;48.82;101872.34;4896966;29;20051;-65
2023/02/01 02:19:45;;;;;;;9.38;2.85;;;;;;;13.43;49.49;101876.91;4909147;29;20644;-65
2023/02/01 02:22:10;;;;;;;9.05;2.78;;;;;;;13.41;48.84;101883.25;4895674;29;20116;-65
2023/02/01 02:24:36;;;;;;;8.85;3.05;;;;;;;13.42;49.86;101881.44;4895707;29;20115;-65
2023/02/01 02:27:25;;;;;;;15.05;2.88;;;;;;;13.43;48.72;101882.28;4889656;29;20064;-65
2023/02/01 02:30:09;;;;;;;7.35;2.20;;;;;;;13.41;49.89;101883.25;4889729;29;20033;-65
2023/02/01 02:32:58;;;;;;;11.77;3.42;;;;;;;13.38;49.65;101882.63;4891078;29;20035;-65
2023/02/01 02:35:42;;;;;;;9.02;2.70;;;;;;;13.36;49.46;101874.69;4891895;29;20508;-65
2023/02/01 02:38:22;;;;;;;9.90;2.40;;;;;;;13.38;48.89;101867.34;4900573;29;20129;-65
2023/02/01 02:40:54;;;;;;;11.65;2.75;;;;;;;13.37;50.27;101868.31;4891090;29;20036;-65
2023/02/01 02:49:29;;;;;;;;;;;;;;;13.39;49.82;101863.69;4893347;29;20528;-65
2023/02/01 02:54:48;;;;;;;15.48;2.67;;;;;;;13.33;49.65;101856.09;4909030;29;20047;-66
2023/02/01 03:05:48;;;;;;;7.57;2.22;;;;;;;13.25;48.78;101855.84;4889964;29;20093;-65
2023/02/01 03:08:14;;;;;;;9.32;2.55;;;;;;;13.25;49.87;101857.69;4889024;29;20040;-66
2023/02/01 03:10:51;;;;;;;8.15;2.35;;;;;;;13.23;48.83;101846.19;4909962;29;20029;-65
2023/02/01 03:13:40;;;;;;;13.05;2.83;;;;;;;13.21;49.74;101851.69;4893151;29;20068;-65
2023/02/01 03:16:26;;;;;;;10.05;2.72;;;;;;;13.19;48.73;101847.41;4900020;29;20040;-65
2023/02/01 03:18:59;;;;;;;8.55;2.13;;;;;;;13.18;49.02;101838.47;4907063;29;20079;-65
2023/02/01 03:21:24;;;;;;;10.27;2.25;;;;;;;13.18;49.39;101841.16;4890442;29;20048;-65
2023/02/01 03:23:51;;;;;;;6.88;1.98;;;;;;;13.10;49.79;101822.09;4891243;29;20032;-66
2023/02/01 03:26:18;;;;;;;11.18;2.75;;;;;;;13.15;48.71;101833.34;4891047;29;20037;-65
2023/02/01 03:28:49;;;;;;;7.45;2.65;;;;;;;13.15;48.83;101833.34;4877790;29;20024;-66
2023/02/01 03:31:15;;;;;;;9.35;1.80;;;;;;;13.15;48.53;101822.56;4889615;29;20033;-65
2023/02/01 03:33:41;;;;;;;15.05;2.03;;;;;;;13.12;48.79;101825.50;4878154;29;20572;-65
2023/02/01 03:36:09;;;;;;;9.23;3.00;;;;;;;13.13;49.54;101827.22;4878323;29;20036;-65
2023/02/01 03:38:52;;;;;;;13.55;3.15;;;;;;;13.11;49.63;101829.19;4890913;29;20178;-65
2023/02/01 03:41:23;;;;;;;8.90;2.80;;;;;;;13.11;49.62;101829.19;4895028;29;20040;-66
2023/02/01 03:44:12;;;;;;;7.00;1.88;;;;;;;13.09;48.66;101825.75;4891148;29;20031;-65
2023/02/01 03:46:42;;;;;;;15.13;2.67;;;;;;;13.11;49.15;101828.31;4889929;29;20045;-65
2023/02/01 03:49:11;;;;;;;8.98;2.22;;;;;;;13.07;49.55;101816.94;4894626;29;20080;-65
2023/02/01 03:51:38;;;;;;;9.77;2.08;;;;;;;13.10;49.04;101821.22;4893214;29;20044;-65
2023/02/01 03:54:05;;;;;;;12.60;2.13;;;;;;;13.09;49.30;101822.22;4893377;29;20084;-65
2023/02/01 03:56:31;;;;;;;15.65;2.83;;;;;;;13.09;49.08;101836.50;4893826;29;20119;-65
2023/02/01 03:59:00;;;;;;;11.40;2.20;;;;;;;13.11;48.47;101834.56;4893553;29;20715;-65
2023/02/01 04:01:30;;;;;;;16.85;2.03;;;;;;;13.11;48.41;101839.94;4895269;29;20111;-65
2023/02/01 04:03:57;;;;;;;8.82;1.45;;;;;;;13.06;48.49;101834.03;4875976;29;20041;-65
2023/02/01 04:06:22;;;;;;;14.18;2.28;;;;;;;13.12;49.42;101846.19;4890753;29;20036;-66
2023/02/01 04:08:48;;;;;;;15.75;2.65;;;;;;;13.10;48.47;101843.59;4892490;29;20540;-65
2023/02/01 04:11:13;;;;;;;10.35;2.10;;;;;;;13.11;47.89;101839.09;4891471;29;20910;-65
2023/02/01 04:13:39;;;;;;;9.60;1.60;;;;;;;13.07;49.44;101838.47;4889696;29;20513;-66
2023/02/01 04:16:05;;;;;;;12.07;2.50;;;;;;;13.08;49.25;101845.56;4895007;29;20032;-65
2023/02/01 04:18:30;;;;;;;9.02;1.77;;;;;;;13.10;48.13;101846.28;4889934;29;20029;-66
2023/02/01 04:20:56;;;;;;;9.77;1.88;;;;;;;13.11;49.09;101841.78;4894156;29;20036;-66
2023/02/01 04:23:21;;;;;;;6.22;1.58;;;;;;;13.12;48.81;101836.25;4891373;29;20040;-66
2023/02/01 04:25:47;;;;;;;12.13;2.55;;;;;;;13.13;48.91;101843.38;4899769;29;20028;-65
2023/02/01 04:28:12;;;;;;;11.43;2.35;;;;;;;13.14;47.89;101845.09;4891834;29;20510;-65
2023/02/01 04:30:38;;;;;;;16.08;2.63;;;;;;;13.07;47.87;101838.47;4890007;29;20125;-66
2023/02/01 04:33:06;;;;;;;6.60;1.48;;;;;;;13.08;47.99;101833.94;4908359;29;20523;-66
2023/02/01 04:35:31;;;;;;;7.57;2.20;;;;;;;13.10;47.79;101832.84;4890640;29;20108;-66
2023/02/01 04:37:57;;;;;;;7.95;1.80;;;;;;;13.09;48.83;101836.50;4875624;29;20053;-65
2023/02/01 04:40:22;;;;;;;14.18;3.70;;;;;;;13.08;47.56;101829.44;4861587;29;20017;-66
2023/02/01 04:42:48;;;;;;;9.35;2.03;;;;;;;13.05;48.71;101818.88;4879643;29;20040;-65
2023/02/01 04:45:13;;;;;;;14.88;2.50;;;;;;;13.04;47.87;101811.78;4888071;29;20061;-65
2023/02/01 04:47:39;;;;;;;8.95;2.05;;;;;;;13.08;47.98;101802.53;4877840;29;20029;-66
2023/02/01 04:50:05;;;;;;;3.63;1.52;;;;;;;13.08;48.49;101802.53;4877628;29;20100;-65
2023/02/01 04:52:31;;;;;;;13.00;1.77;;;;;;;13.07;47.58;101811.56;4906734;29;20108;-65
2023/02/01 04:54:59;;;;;;;12.27;2.28;;;;;;;13.00;48.16;101799.56;4894897;29;20473;-65
2023/02/01 04:57:24;;;;;;;10.60;2.08;;;;;;;13.01;47.76;101812.00;4910513;29;20047;-66
2023/02/01 04:59:50;;;;;;;7.65;2.13;;;;;;;12.99;47.65;101811.28;4880248;29;20033;-66
2023/02/01 05:02:15;;;;;;;16.35;1.77;;;;;;;12.98;48.26;101817.63;4880317;29;20036;-66
2023/02/01 05:04:40;;;;;;;5.78;1.70;;;;;;;12.97;48.30;101821.31;4885333;29;20478;-65
2023/02/01 05:07:06;;;;;;;8.32;1.40;;;;;;;12.96;47.39;101816.91;4910314;29;20036;-65
2023/02/01 05:09:31;;;;;;;14.63;2.67;;;;;;;12.93;48.44;101819.81;4881441;29;20096;-66
2023/02/01 05:14:41;;;;;;;18.75;1.90;;;;;;;12.92;48.38;101812.75;4881235;29;20097;-65
2023/02/01 05:17:06;;;;;;;10.25;2.13;;;;;;;12.89;47.67;101822.88;4882621;29;20029;-65
2023/02/01 05:19:31;;;;;;;10.15;2.67;;;;;;;12.89;47.28;101826.44;4869623;29;20056;-65
2023/02/01 05:21:57;;;;;;;10.15;1.75;;;;;;;12.87;48.66;101825.69;4882614;29;20501;-65
2023/02/01 05:24:22;;;;;;;9.10;2.00;;;;;;;12.83;48.50;101830.47;4886325;29;20522;-66
2023/02/01 05:26:48;;;;;;;9.68;2.03;;;;;;;12.87;47.19;101827.53;4883028;29;20112;-65
2023/02/01 05:29:15;;;;;;;9.93;1.60;;;;;;;12.86;47.43;101818.59;4871626;29;20116;-66
2023/02/01 05:31:40;;;;;;;12.10;3.03;;;;;;;12.86;47.03;101821.28;4894566;29;20100;-65
2023/02/01 05:34:06;;;;;;;11.93;1.67;;;;;;;12.85;48.64;101833.88;4909613;29;20450;-66
2023/02/01 05:36:31;;;;;;;6.35;1.73;;;;;;;12.87;48.24;101835.59;4880760;29;20048;-65
2023/02/01 05:38:57;;;;;;;12.18;1.98;;;;;;;12.86;47.63;101829.38;4888246;29;20041;-66
2023/02/01 05:41:22;;;;;;;7.32;1.52;;;;;;;12.83;48.41;101835.84;4909707;29;20680;-65
2023/02/01 05:43:48;;;;;;;10.07;1.63;;;;;;;12.82;47.73;101830.56;4882728;29;20032;-66
2023/02/01 05:46:14;;;;;;;9.43;2.00;;;;;;;12.78;48.04;101816.53;4909555;29;20075;-65
2023/02/01 05:48:40;;;;;;;8.43;1.98;;;;;;;12.78;47.62;101815.66;4877825;29;20036;-65
2023/02/01 05:51:05;;;;;;;7.45;2.05;;;;;;;12.78;47.14;101818.34;4879077;29;20393;-66
2023/02/01 05:53:31;;;;;;;6.57;2.00;;;;;;;12.75;47.29;101816.75;4880574;29;20049;-65
2023/02/01 05:55:56;;;;;;;7.78;1.65;;;;;;;12.75;47.54;101810.53;4893260;29;20063;-65
2023/02/01 05:58:22;;;;;;;15.55;1.98;;;;;;;12.70;47.18;101800.09;4898774;29;20112;-65
2023/02/01 06:00:47;;;;;;;10.95;2.00;;;;;;;12.73;47.92;101812.47;4909249;29;20450;-65
2023/02/01 06:03:12;;;;;;;15.25;2.58;;;;;;;12.73;47.10;101809.78;4879852;29;20041;-65
2023/02/01 06:05:38;;;;;;;17.33;1.88;;;;;;;12.73;48.34;101818.69;4888051;29;20378;-65
2023/02/01 06:08:03;;;;;;;20.17;1.80;;;;;;;12.67;47.47;101812.94;4880540;29;20021;-65
2023/02/01 06:10:29;;;;;;;8.65;1.88;;;;;;;12.69;47.07;101819.91;4888674;29;20574;-65
2023/02/01 06:12:54;;;;;;;10.95;2.42;;;;;;;12.69;47.97;101821.75;4883082;29;20458;-66
2023/02/01 06:15:19;;;;;;;7.53;2.15;;;;;;;12.69;47.09;101827.13;4889131;29;20076;-66
2023/02/01 06:17:45;;;;;;;8.65;2.58;;;;;;;12.71;48.30;101833.22;4887997;29;20410;-65
2023/02/01 06:20:12;;;;;;;13.13;1.95;;;;;;;12.71;47.57;101831.41;4896639;29;20125;-65
2023/02/01 06:22:38;;;;;;;6.78;1.55;;;;;;;12.71;47.35;101839.47;4888651;29;20493;-66
2023/02/01 06:25:06;;;;;;;6.70;1.60;;;;;;;12.69;47.11;101837.88;4895344;29;20025;-64
2023/02/01 06:27:32;;;;;;;11.95;2.63;;;;;;;12.68;48.55;101837.00;4880308;29;20117;-65
2023/02/01 06:29:57;;;;;;;11.00;1.90;;;;;;;12.68;47.26;101841.53;4889241;29;20079;-64
2023/02/01 06:32:23;;;;;;;7.72;1.80;;;;;;;12.70;47.65;101840.44;4893094;29;20033;-64
2023/02/01 06:34:49;;;;;;;5.50;2.08;;;;;;;12.70;47.42;101837.75;4895131;29;20515;-65
2023/02/01 06:37:14;;;;;;;17.42;2.53;;;;;;;12.70;47.03;101842.28;4881989;29;20519;-67
2023/02/01 06:39:39;;;;;;;10.55;1.77;;;;;;;12.71;47.11;101858.28;4902300;29;20061;-64
2023/02/01 06:42:05;;;;;;;16.17;2.13;;;;;;;12.67;48.46;101846.03;4908628;29;20043;-64
2023/02/01 06:44:30;;;;;;;11.38;1.80;;;;;;;12.73;47.70;101866.25;4887769;29;20394;-64
2023/02/01 06:46:56;;;;;;;11.73;2.47;;;;;;;12.74;47.19;101859.88;4905344;29;20036;-65
2023/02/01 06:49:21;;;;;;;10.65;1.88;;;;;;;12.74;48.07;101860.75;4909042;29;20045;-65
2023/02/01 06:51:47;;;;;;;10.50;1.98;;;;;;;12.74;46.78;101867.94;4889416;29;20025;-65
2023/02/01 06:54:12;;;;;;;11.38;2.50;;;;;;;12.73;47.61;101877.00;4908799;29;20061;-65
2023/02/01 06:56:38;;;;;;;16.33;1.70;;;;;;;12.69;47.74;101865.63;4908824;29;20047;-64
2023/02/01 06:59:05;;;;;;;12.30;1.70;;;;;;;12.70;47.84;101874.53;4893114;29;20100;-64
2023/02/01 07:01:30;;;;;;;6.45;1.67;;;;;;;12.68;48.13;101869.25;4889594;29;20475;-65
2023/02/01 07:03:55;;;;;;;16.52;2.13;;;;;;;12.67;46.78;101880.16;4879165;29;20132;-65
2023/02/01 07:06:21;;;;;;;12.05;1.67;;;;;;;12.65;47.44;101884.75;4879247;29;20085;-65
2023/02/01 07:08:47;;;;;;;7.90;1.75;;;;;;;12.64;47.57;101883.06;4892649;29;20413;-64
2023/02/01 07:11:13;;;;;;;15.48;2.08;;;;;;;12.64;47.67;101883.06;4878203;29;20029;-65
2023/02/01 07:13:39;;;;;;;16.10;1.88;;;;;;;12.64;48.20;101885.75;4877614;29;20120;-65
2023/02/01 07:16:08;;;;;;;11.00;1.52;;;;;;;12.68;47.29;101889.91;4908089;29;20440;-65
2023/02/01 07:18:33;;;;;;;12.68;1.58;;;;;;;12.70;47.10;101893.34;4894093;29;20040;-65
2023/02/01 07:20:59;;;;;;;3.55;1.23;;;;;;;12.70;47.43;101888.81;4879010;29;20421;-65
2023/02/01 07:23:25;;;;;;;9.75;1.88;;;;;;;12.70;47.54;101877.22;4908064;29;20068;-65
2023/02/01 07:25:58;;;;;;;12.48;1.60;;;;;;;12.73;47.29;101879.69;4891929;29;20021;-65
2023/02/01 07:28:24;;;;;;;;;;;;;;;12.78;46.73;101880.19;4879475;29;20116;-66
2023/02/01 07:30:50;;;;;;;13.32;1.63;;;;;;;12.81;47.18;101867.34;4893056;29;20025;-65
2023/02/01 07:33:26;;;;;;;19.75;2.50;;;;;;;12.83;46.71;101861.88;4878736;29;20044;-65
2023/02/01 07:35:51;;;;;;;16.85;2.10;;;;;;;12.85;47.70;101870.66;4907407;29;20061;-65
2023/02/01 07:38:17;;;;;;;13.52;1.75;;;;;;;12.85;47.30;101881.41;4880390;29;20128;-65
2023/02/01 07:40:43;;;;;;;8.38;2.63;;;;;;;12.88;46.94;101881.19;4882523;29;20404;-66
2023/02/01 07:43:09;;;;;;;11.90;1.73;;;;;;;12.89;46.56;101871.28;4907426;29;20040;-65
2023/02/01 07:45:35;;;;;;;10.15;1.60;;;;;;;12.86;47.28;101867.00;4892693;29;20033;-65
2023/02/01 07:48:01;;;;;;;4.55;1.73;;;;;;;12.83;47.34;101868.09;4907225;29;20029;-65
2023/02/01 07:50:27;;;;;;;11.52;2.03;;;;;;;12.84;47.53;101868.97;4880142;29;20120;-65
2023/02/01 07:52:53;;;;;;;13.48;2.35;;;;;;;12.84;47.20;101864.41;4895699;29;20409;-65
2023/02/01 07:55:19;;;;;;;14.43;1.83;;;;;;;12.88;47.16;101872.25;4877594;29;20031;-65
2023/02/01 07:57:44;;;;;;;12.18;1.80;;;;;;;12.87;46.76;101868.69;4878180;29;20043;-66
2023/02/01 08:02:57;;;;;;;18.90;2.05;;;;;;;12.95;47.07;101879.75;4890770;29;20063;-65
2023/02/01 08:05:23;;;;;;;9.77;1.67;;;;;;;13.01;46.49;101876.56;4878053;29;20045;-65
2023/02/01 08:07:49;;;;;;;6.97;1.65;;;;;;;13.06;46.46;101885.16;4878451;29;20045;-65
2023/02/01 08:10:16;;;;;;;7.30;1.73;;;;;;;13.07;47.23;101876.13;4878030;29;20512;-65
2023/02/01 08:12:41;;;;;;;9.10;1.88;;;;;;;13.18;46.21;101894.09;4885929;29;20494;-65
2023/02/01 08:15:07;;;;;;;8.82;2.28;;;;;;;13.23;46.78;101882.00;4905958;29;20116;-66
2023/02/01 08:17:32;;;;;;;8.52;1.92;;;;;;;13.26;47.13;101887.16;4907445;29;20051;-65
2023/02/01 08:19:57;;;;;;;13.13;3.13;;;;;;;13.31;46.06;101890.38;4882430;29;20120;-65
2023/02/01 08:22:23;;;;;;;13.40;1.67;;;;;;;13.34;46.95;101897.34;4884152;29;20033;-65
2023/02/01 08:24:48;;;;;;;8.98;1.95;;;;;;;13.40;47.28;101899.50;4880790;29;20097;-64
2023/02/01 08:27:14;;;;;;;8.75;1.75;;;;;;;13.49;45.93;101897.94;4882214;29;20036;-64
2023/02/01 08:29:39;;;;;;;7.00;2.40;;;;;;;13.54;45.70;101898.44;4879890;29;20048;-65
2023/02/01 08:32:05;;;;;;;12.93;2.28;;;;;;;13.60;46.22;101911.41;4878859;29;20481;-65
2023/02/01 08:34:30;;;;;;;16.10;2.22;;;;;;;13.63;46.92;101905.78;4882843;29;20036;-65
2023/02/01 08:36:59;;;;;;;14.07;1.92;;;;;;;13.65;46.02;101911.91;4889248;29;20038;-65
2023/02/01 08:39:25;;;;;;;12.52;1.73;;;;;;;13.72;46.10;101911.28;4862148;29;20468;-64
2023/02/01 08:44:35;;;;;;;6.10;2.38;;;;;;;13.91;45.60;101916.03;4881402;29;20096;-65
2023/02/01 08:47:00;;;;;;;5.95;2.13;;;;;;;13.96;45.55;101919.22;4880064;29;20028;-65
2023/02/01 08:49:26;;;;;;;11.32;2.90;;;;;;;13.95;46.41;101914.81;4897048;29;20187;-64
2023/02/01 08:51:51;;;;;;;9.43;2.65;;;;;;;14.01;45.65;101922.41;4893857;29;20044;-65
2023/02/01 08:54:17;;;;;;;12.68;2.65;;;;;;;14.03;45.84;101912.38;4880678;29;20037;-65
2023/02/01 08:56:42;;;;;;;8.90;1.90;;;;;;;14.19;46.74;101910.13;4907022;29;20132;-65
2023/02/01 08:59:07;;;;;;;15.20;2.60;;;;;;;14.20;46.45;101909.16;4890958;29;20163;-65
2023/02/01 09:01:33;;;;;;;7.25;1.90;;;;;;;14.25;46.53;101912.31;4883504;29;20116;-68
2023/02/01 09:03:58;;;;;;;9.73;1.63;;;;;;;14.21;46.04;101901.94;4891411;29;20076;-67
2023/02/01 09:06:23;;;;;;;12.25;2.08;;;;;;;14.19;47.02;101899.34;4879895;29;20048;-68
2023/02/01 09:08:49;;;;;;;10.65;2.35;;;;;;;14.23;46.28;101906.22;4881295;29;20033;-67
2023/02/01 09:11:18;;;;;;;20.05;1.85;;;;;;;14.23;45.65;101906.22;4881700;29;20037;-65
2023/02/01 09:13:44;;;;;;;8.30;1.55;;;;;;;14.23;45.75;101916.97;4885789;29;20033;-65
2023/02/01 09:16:10;;;;;;;10.30;1.60;;;;;;;14.29;45.67;101910.22;4891085;29;20405;-65
2023/02/01 09:18:35;;;;;;;6.00;2.15;;;;;;;14.36;45.46;101906.06;4890890;29;20688;-65
2023/02/01 09:21:08;;;;;;;16.27;2.80;;;;;;;14.41;45.98;101914.63;4879887;29;20037;-65
2023/02/01 09:23:34;;;;;;;15.07;2.47;;;;;;;14.36;45.72;101900.69;4906782;29;20513;-66
2023/02/01 09:26:00;;;;;;;10.30;2.35;;;;;;;14.45;45.92;101897.22;4880029;29;20064;-65
2023/02/01 09:28:26;;;;;;;7.60;1.80;;;;;;;14.52;45.75;101896.56;4881504;29;20085;-65
2023/02/01 09:30:56;;;;;;;11.40;2.13;;;;;;;14.56;46.26;101879.16;4882344;29;20029;-65
2023/02/01 09:33:23;;;;;;;14.52;1.77;;;;;;;14.55;45.31;101872.06;4891194;29;20028;-66
2023/02/01 09:35:49;;;;;;;10.55;2.72;;;;;;;14.60;46.37;101870.81;4891110;29;20084;-66
2023/02/01 09:38:14;;;;;;;10.02;2.30;;;;;;;14.63;45.03;101866.00;4883284;29;20405;-66
2023/02/01 09:40:42;;;;;;;12.75;2.65;;;;;;;14.74;45.09;101868.66;4908561;29;20155;-66
2023/02/01 09:43:17;;;;;;;7.43;1.67;;;;;;;14.80;44.92;101869.97;4908611;29;20385;-65
2023/02/01 09:46:19;;;;;;;8.75;1.90;;;;;;;14.81;45.32;101858.19;4884599;29;20065;-66
2023/02/01 09:48:45;;;;;;;9.13;1.60;;;;;;;14.98;45.46;101873.78;4887412;29;20040;-66
2023/02/01 09:51:18;;;;;;;11.10;2.47;;;;;;;15.24;45.53;101861.63;4882953;29;20037;-65
2023/02/01 09:53:47;;;;;;;14.65;2.17;;;;;;;15.28;44.42;101865.72;4889289;29;20040;-66
2023/02/01 09:56:15;;;;;;;7.55;2.20;;;;;;;15.58;45.12;101870.31;4881604;29;20056;-66
2023/02/01 09:59:10;;;;;;;13.50;2.45;;;;;;;15.61;44.01;101865.50;4883160;29;20017;-66
2023/02/01 10:01:36;;;;;;;7.80;1.25;;;;;;;15.86;43.79;101866.00;4881011;29;20045;-66
2023/02/01 10:04:07;;;;;;;7.55;2.00;;;;;;;15.92;44.93;101851.94;4893930;29;20383;-66
2023/02/01 10:06:57;;;;;;;11.65;2.22;;;;;;;16.69;43.87;101864.59;4883182;29;20410;-66
2023/02/01 10:09:42;;;;;;;11.63;2.10;;;;;;;17.14;43.23;101853.13;4883991;29;20048;-66
2023/02/01 10:12:44;;;;;;;17.42;2.10;;;;;;;17.63;42.61;101857.38;4898370;29;20033;-66
2023/02/01 10:15:24;;;;;;;9.07;1.88;;;;;;;18.11;42.33;101860.69;4883627;29;20037;-66
2023/02/01 10:18:08;;;;;;;15.60;2.40;;;;;;;18.29;42.54;101866.97;4901616;29;20041;-66
2023/02/01 10:20:51;;;;;;;7.88;2.47;;;;;;;18.59;41.94;101865.78;4884186;29;20088;-66
2023/02/01 10:23:29;;;;;;;13.70;2.78;;;;;;;18.56;41.76;101863.38;4910197;29;20049;-66
2023/02/01 10:26:16;;;;;;;8.48;1.48;;;;;;;18.62;42.02;101860.03;4888492;29;20032;-66
2023/02/01 10:28:42;;;;;;;9.57;1.80;;;;;;;18.67;41.99;101868.56;4882941;29;20068;-66
2023/02/01 10:31:09;;;;;;;16.92;2.15;;;;;;;18.57;41.95;101856.94;4883249;29;20033;-66
2023/02/01 10:34:19;;;;;;;12.00;2.30;;;;;;;18.98;41.88;101856.25;4886173;29;20044;-67
2023/02/01 10:36:56;;;;;;;6.18;1.70;;;;;;;19.58;40.56;101848.16;4885601;29;20585;-67
2023/02/01 10:39:22;;;;;;;10.05;2.00;;;;;;;19.87;41.02;101858.66;4893954;29;20408;-67
2023/02/01 10:41:47;;;;;;;6.65;1.50;;;;;;;20.15;40.05;101858.25;4907495;29;20131;-66
2023/02/01 10:44:16;;;;;;;9.30;1.92;;;;;;;20.42;40.17;101856.28;4907376;29;20033;-67
2023/02/01 10:46:41;;;;;;;7.55;1.75;;;;;;;20.14;40.77;101851.09;4878163;29;20033;-66
2023/02/01 10:49:13;;;;;;;7.75;2.22;;;;;;;20.51;39.59;101858.84;4885067;29;20204;-66
2023/02/01 10:51:45;;;;;;;8.80;1.58;;;;;;;20.65;39.71;101849.16;4892713;29;20101;-66
2023/02/01 10:54:20;;;;;;;9.77;2.42;;;;;;;20.81;39.64;101838.25;4879442;29;20029;-66
2023/02/01 10:56:46;;;;;;;12.20;1.83;;;;;;;21.05;39.62;101848.31;4896110;29;20087;-66
2023/02/01 10:59:17;;;;;;;13.60;2.33;;;;;;;20.71;39.61;101851.22;4888666;29;20564;-66
2023/02/01 11:01:46;;;;;;;4.90;1.70;;;;;;;20.40;39.56;101852.88;4883827;29;20024;-66
2023/02/01 11:04:16;;;;;;;9.60;1.98;;;;;;;20.54;40.18;101844.06;4878587;29;20462;-66
2023/02/01 11:06:43;;;;;;;8.93;2.08;;;;;;;20.10;39.96;101849.72;4887635;29;20040;-66
2023/02/01 11:09:09;;;;;;;8.38;2.25;;;;;;;19.91;39.80;101855.44;4878065;29;20139;-66
2023/02/01 11:11:47;;;;;;;8.00;1.88;;;;;;;19.46;40.15;101844.03;4908544;29;20064;-67
2023/02/01 11:14:24;;;;;;;12.35;2.03;;;;;;;19.09;40.48;101847.00;4883120;29;20048;-68
2023/02/01 11:17:12;;;;;;;10.23;1.80;;;;;;;19.26;40.11;101834.38;4880648;29;20105;-66
2023/02/01 11:19:44;;;;;;;11.48;1.40;;;;;;;19.13;40.54;101832.94;4864322;29;20048;-67
2023/02/01 11:22:12;;;;;;;8.18;2.38;;;;;;;18.81;40.09;101826.44;4878931;29;20409;-67
2023/02/01 11:24:40;;;;;;;7.47;2.13;;;;;;;18.52;40.67;101833.00;4907875;29;20033;-67
2023/02/01 11:27:17;;;;;;;7.93;2.08;;;;;;;18.27;41.20;101838.28;4898288;29;20041;-67
2023/02/01 11:29:45;;;;;;;14.05;1.92;;;;;;;18.09;40.86;101840.16;4894698;29;20032;-66
2023/02/01 11:32:13;;;;;;;7.80;1.73;;;;;;;18.02;41.14;101823.63;4876466;29;20044;-67
2023/02/01 11:34:42;;;;;;;8.55;1.73;;;;;;;17.90;41.87;101816.72;4906952;29;20047;-67
2023/02/01 11:37:18;;;;;;;6.72;1.63;;;;;;;17.73;41.44;101796.69;4880452;29;20025;-66
2023/02/01 11:40:03;;;;;;;11.15;2.42;;;;;;;17.57;41.50;101791.09;4879673;29;20064;-67
2023/02/01 11:42:32;;;;;;;9.30;1.25;;;;;;;17.44;41.08;101801.41;4878494;29;20510;-67
2023/02/01 11:45:17;;;;;;;6.88;1.60;;;;;;;17.29;41.79;101795.63;4878548;29;20053;-67
2023/02/01 11:47:42;;;;;;;3.53;1.35;;;;;;;17.13;41.42;101814.34;4881998;29;20065;-67
2023/02/01 11:50:21;;;;;;;5.55;2.03;;;;;;;17.02;41.76;101809.13;4891528;29;20081;-67
2023/02/01 11:53:09;;;;;;;12.40;1.80;;;;;;;17.09;41.58;101812.06;4862016;29;20033;-67
2023/02/01 11:56:07;;;;;;;12.82;1.85;;;;;;;17.09;41.50;101791.28;4877836;29;20128;-66